Time;durP1;ratioP1;P1;durP2;ratioP2;P2;SDS_P1;SDS_P2;PMS_P1;PMS_P2;Temp;Humidity;BMP_temperature;BMP_pressure;BME280_temperature;BME280_humidity;BME280_pressure;Samples;Min_cycle;Max_cycle;Signal;HPM_P1;HPM_P2
2021/11/18 00:00:42;;;;;;;129.57;45.67;;;6.50;99.90;;;;;;5016413;28;20056;-70
2021/11/18 00:03:11;;;;;;;116.65;44.35;;;6.50;99.90;;;;;;5024104;28;20711;-70
2021/11/18 00:05:38;;;;;;;110.97;45.35;;;6.60;99.90;;;;;;5006341;28;20065;-70
2021/11/18 00:08:06;;;;;;;119.82;44.78;;;6.60;99.90;;;;;;5005634;28;20092;-70
2021/11/18 00:10:37;;;;;;;111.47;43.40;;;6.60;99.90;;;;;;5005390;28;20038;-70
2021/11/18 00:13:08;;;;;;;105.47;44.78;;;6.60;99.90;;;;;;5022979;28;20045;-70
2021/11/18 00:15:36;;;;;;;125.88;46.30;;;6.60;99.90;;;;;;5000585;28;20064;-70
2021/11/18 00:18:07;;;;;;;120.40;45.15;;;6.60;99.90;;;;;;4990068;28;20041;-71
2021/11/18 00:20:38;;;;;;;115.00;44.90;;;6.60;99.90;;;;;;5023668;28;20053;-71
2021/11/18 00:23:05;;;;;;;101.75;40.88;;;6.60;99.90;;;;;;5024439;28;20679;-71
2021/11/18 00:25:32;;;;;;;120.43;45.05;;;6.50;99.90;;;;;;4992208;28;20613;-71
2021/11/18 00:28:00;;;;;;;103.30;41.50;;;6.50;99.90;;;;;;5006798;28;20056;-70
2021/11/18 00:30:28;;;;;;;109.38;41.45;;;6.50;99.90;;;;;;4989793;28;20434;-72
2021/11/18 00:32:56;;;;;;;112.90;43.15;;;6.60;99.90;;;;;;4990525;28;20400;-70
2021/11/18 00:35:26;;;;;;;109.60;42.08;;;6.60;99.90;;;;;;5023367;28;20107;-71
2021/11/18 00:37:53;;;;;;;96.85;39.08;;;6.60;99.90;;;;;;5015104;28;20042;-70
2021/11/18 00:40:27;;;;;;;105.28;40.53;;;6.60;99.90;;;;;;5009370;28;20096;-71
2021/11/18 00:42:54;;;;;;;109.30;39.40;;;6.60;99.90;;;;;;4997628;28;20061;-71
2021/11/18 00:45:24;;;;;;;96.78;38.97;;;6.60;99.90;;;;;;4994131;28;20053;-71
2021/11/18 00:47:53;;;;;;;104.63;39.08;;;6.60;99.90;;;;;;5008632;28;20747;-70
2021/11/18 00:50:24;;;;;;;107.53;36.55;;;6.60;99.90;;;;;;5010176;28;20076;-71
2021/11/18 00:52:52;;;;;;;92.55;35.40;;;6.60;99.90;;;;;;5027922;28;20056;-70
2021/11/18 00:56:16;;;;;;;88.55;35.78;;;6.60;99.90;;;;;;5026654;28;20476;-70
2021/11/18 00:58:44;;;;;;;84.47;31.50;;;6.60;99.90;;;;;;4991054;28;20063;-71
2021/11/18 01:01:15;;;;;;;81.80;34.45;;;6.60;99.90;;;;;;4988208;28;20053;-70
2021/11/18 01:03:43;;;;;;;90.95;33.30;;;6.60;99.90;;;;;;4991901;28;20150;-71
2021/11/18 01:06:10;;;;;;;97.85;34.47;;;6.60;99.90;;;;;;4991660;28;20060;-71
2021/11/18 01:08:37;;;;;;;91.05;33.40;;;6.70;99.90;;;;;;4991827;28;20443;-71
2021/11/18 01:11:15;;;;;;;97.18;31.95;;;6.70;99.90;;;;;;5008118;28;20396;-71
2021/11/18 01:13:43;;;;;;;78.82;31.20;;;6.70;99.90;;;;;;4992967;28;20107;-71
2021/11/18 01:16:14;;;;;;;85.63;30.70;;;6.70;99.90;;;;;;5003321;28;20909;-70
2021/11/18 01:18:41;;;;;;;72.95;30.35;;;6.70;99.90;;;;;;4986367;28;20107;-71
2021/11/18 01:21:10;;;;;;;79.90;30.92;;;6.70;99.90;;;;;;5008765;28;20127;-71
2021/11/18 01:23:41;;;;;;;73.25;29.75;;;6.70;99.90;;;;;;4992531;28;20500;-71
2021/11/18 01:26:12;;;;;;;79.65;29.98;;;6.70;99.90;;;;;;4992663;28;20049;-70
2021/11/18 01:28:39;;;;;;;75.60;28.55;;;6.70;99.90;;;;;;5010364;28;20516;-71
2021/11/18 01:31:06;;;;;;;73.82;28.60;;;6.60;99.90;;;;;;5025579;28;20045;-71
2021/11/18 01:33:34;;;;;;;81.10;29.55;;;6.70;99.90;;;;;;4992806;28;20041;-70
2021/11/18 01:36:03;;;;;;;75.38;27.98;;;6.70;99.90;;;;;;5007902;28;20046;-71
2021/11/18 01:38:33;;;;;;;76.03;24.88;;;6.70;99.90;;;;;;4991995;28;20080;-71
2021/11/18 01:41:26;;;;;;;70.22;25.02;;;6.70;99.90;;;;;;5006229;28;20096;-71
2021/11/18 01:43:56;;;;;;;71.15;26.67;;;6.70;99.90;;;;;;4992333;28;20050;-71
2021/11/18 01:46:29;;;;;;;66.97;24.52;;;6.70;99.90;;;;;;5007658;28;20045;-71
2021/11/18 01:48:58;;;;;;;73.57;25.27;;;6.70;99.90;;;;;;4991227;28;20077;-71
2021/11/18 01:51:33;;;;;;;73.65;26.08;;;6.80;99.90;;;;;;4991239;28;20048;-71
2021/11/18 01:54:03;;;;;;;92.50;24.30;;;6.80;99.90;;;;;;5008262;28;20049;-71
2021/11/18 01:56:33;;;;;;;78.43;23.88;;;6.80;99.90;;;;;;4989843;28;20057;-71
2021/11/18 01:59:11;;;;;;;55.80;21.13;;;6.80;99.90;;;;;;5004221;28;20049;-71
2021/11/18 02:01:45;;;;;;;71.78;22.13;;;6.70;99.90;;;;;;5008884;28;20053;-71
2021/11/18 02:04:27;;;;;;;55.10;21.10;;;6.80;99.90;;;;;;5008218;28;20088;-71
2021/11/18 02:07:05;;;;;;;67.65;20.55;;;6.80;99.90;;;;;;5006711;28;20080;-71
2021/11/18 02:09:40;;;;;;;67.30;21.75;;;6.70;99.90;;;;;;4990242;28;20060;-71
2021/11/18 02:12:15;;;;;;;62.70;20.70;;;6.70;99.90;;;;;;5027171;28;20136;-71
2021/11/18 02:14:43;;;;;;;63.13;21.80;;;6.70;99.90;;;;;;5003656;28;20084;-71
2021/11/18 02:17:14;;;;;;;63.30;22.52;;;6.80;99.90;;;;;;5006906;28;20045;-71
2021/11/18 02:19:49;;;;;;;68.10;21.60;;;6.70;99.90;;;;;;5007392;28;20111;-71
2021/11/18 02:22:17;;;;;;;57.65;19.75;;;6.80;99.90;;;;;;4991186;28;20073;-71
2021/11/18 02:24:57;;;;;;;59.45;19.45;;;6.80;99.90;;;;;;5007767;28;20084;-71
2021/11/18 02:27:26;;;;;;;60.55;22.70;;;6.90;99.90;;;;;;4989222;28;20052;-71
2021/11/18 02:29:54;;;;;;;62.42;21.17;;;6.80;99.90;;;;;;5005104;28;20056;-71
2021/11/18 02:32:32;;;;;;;63.00;19.95;;;6.80;99.90;;;;;;5021733;28;20055;-71
2021/11/18 02:35:30;;;;;;;60.13;22.17;;;6.80;99.90;;;;;;5007434;28;20059;-71
2021/11/18 02:37:58;;;;;;;69.35;20.25;;;6.80;99.90;;;;;;5005052;28;20065;-71
2021/11/18 02:40:27;;;;;;;54.97;22.13;;;6.90;99.90;;;;;;5005024;28;20046;-71
2021/11/18 02:42:59;;;;;;;54.13;20.55;;;6.80;99.90;;;;;;5006756;28;20045;-72
2021/11/18 02:45:31;;;;;;;58.22;19.70;;;6.80;99.90;;;;;;5024179;28;20519;-72
2021/11/18 02:47:58;;;;;;;57.55;19.48;;;6.80;99.90;;;;;;5024410;28;20081;-71
2021/11/18 02:50:29;;;;;;;50.67;19.17;;;6.80;99.90;;;;;;4990360;28;20045;-72
2021/11/18 02:52:57;;;;;;;61.05;19.33;;;6.90;99.90;;;;;;5006686;28;20103;-71
2021/11/18 02:55:27;;;;;;;52.03;19.67;;;6.80;99.90;;;;;;5024361;28;20041;-71
2021/11/18 02:57:55;;;;;;;62.88;20.10;;;6.80;99.90;;;;;;5018766;28;20053;-72
2021/11/18 03:00:28;;;;;;;48.45;17.58;;;6.80;99.90;;;;;;5026719;28;20053;-71
2021/11/18 03:02:56;;;;;;;53.00;19.83;;;6.80;99.90;;;;;;5007006;28;20228;-71
2021/11/18 03:05:24;;;;;;;61.85;19.55;;;6.80;99.90;;;;;;5003327;28;20146;-71
2021/11/18 03:07:51;;;;;;;48.10;17.92;;;6.90;99.90;;;;;;5023185;28;20068;-70
2021/11/18 03:10:21;;;;;;;55.55;19.30;;;6.90;99.90;;;;;;5002634;28;20052;-70
2021/11/18 03:12:49;;;;;;;62.97;19.13;;;6.90;99.90;;;;;;5005458;28;20158;-70
2021/11/18 03:15:17;;;;;;;54.45;18.35;;;6.90;99.90;;;;;;4988153;28;20045;-71
2021/11/18 03:17:44;;;;;;;60.28;21.10;;;6.90;99.90;;;;;;4989828;28;20834;-70
2021/11/18 03:20:22;;;;;;;50.42;18.67;;;6.90;99.90;;;;;;5004914;28;20064;-71
2021/11/18 03:22:51;;;;;;;46.83;17.35;;;6.90;99.90;;;;;;4988772;28;20141;-71
2021/11/18 03:25:23;;;;;;;52.72;17.17;;;6.90;99.90;;;;;;5005424;28;20049;-70
2021/11/18 03:27:52;;;;;;;56.63;18.13;;;6.90;99.90;;;;;;4989051;28;20053;-70
2021/11/18 03:30:27;;;;;;;53.65;18.50;;;6.80;99.90;;;;;;5005226;28;20809;-71
2021/11/18 03:32:57;;;;;;;38.83;16.45;;;6.90;99.90;;;;;;4989694;28;20653;-70
2021/11/18 03:35:26;;;;;;;53.75;19.13;;;6.90;99.90;;;;;;5004705;28;20095;-70
2021/11/18 03:37:56;;;;;;;46.83;18.10;;;6.90;99.90;;;;;;5004547;28;20038;-70
2021/11/18 03:40:24;;;;;;;48.90;19.10;;;6.90;99.90;;;;;;5001026;28;20176;-69
2021/11/18 03:42:51;;;;;;;58.10;18.55;;;6.90;99.90;;;;;;5005517;28;20395;-70
2021/11/18 03:45:23;;;;;;;52.17;18.33;;;6.90;99.90;;;;;;5005035;28;20081;-70
2021/11/18 03:47:50;;;;;;;59.55;18.98;;;6.90;99.90;;;;;;4989406;28;20595;-70
2021/11/18 03:50:18;;;;;;;45.97;16.55;;;6.90;99.90;;;;;;4988704;28;20045;-70
2021/11/18 03:52:47;;;;;;;60.10;19.35;;;6.80;99.90;;;;;;4969680;28;20042;-70
2021/11/18 03:55:16;;;;;;;48.58;18.02;;;6.90;99.90;;;;;;5004891;28;20049;-70
2021/11/18 03:57:47;;;;;;;60.78;19.85;;;6.90;99.90;;;;;;5004206;28;20194;-70
2021/11/18 04:00:29;;;;;;;48.55;17.48;;;7.00;99.90;;;;;;5014928;28;20057;-70
2021/11/18 04:02:58;;;;;;;49.47;18.08;;;6.90;99.90;;;;;;5002328;28;20578;-70
2021/11/18 04:05:31;;;;;;;50.42;18.95;;;6.90;99.90;;;;;;4987305;28;20053;-70
2021/11/18 04:07:58;;;;;;;42.00;18.75;;;6.90;99.90;;;;;;5004377;28;20143;-70
2021/11/18 04:10:29;;;;;;;49.50;17.55;;;6.90;99.90;;;;;;4970658;28;20526;-70
2021/11/18 04:12:56;;;;;;;47.55;17.83;;;6.90;99.90;;;;;;5004000;28;20053;-71
2021/11/18 04:15:25;;;;;;;44.88;17.35;;;6.90;99.90;;;;;;5020247;28;20136;-70
2021/11/18 04:17:56;;;;;;;58.75;18.45;;;6.90;99.90;;;;;;4987450;28;20042;-71
2021/11/18 04:20:30;;;;;;;44.00;18.10;;;6.90;99.90;;;;;;4988261;28;20056;-70
2021/11/18 04:22:58;;;;;;;50.08;17.88;;;6.90;99.90;;;;;;5004713;28;20053;-71
2021/11/18 04:25:30;;;;;;;57.20;19.27;;;6.90;99.90;;;;;;5004032;28;20056;-70
2021/11/18 04:27:58;;;;;;;42.58;17.13;;;6.90;99.90;;;;;;4988751;28;20061;-70
2021/11/18 04:30:31;;;;;;;47.08;18.17;;;6.90;99.90;;;;;;5001831;28;20093;-70
2021/11/18 04:33:18;;;;;;;53.13;17.73;;;6.90;99.90;;;;;;4994357;28;20056;-70
2021/11/18 04:35:46;;;;;;;53.95;17.90;;;6.90;99.90;;;;;;5004099;28;20265;-70
2021/11/18 04:38:13;;;;;;;50.03;17.08;;;6.90;99.90;;;;;;4989164;28;20099;-70
2021/11/18 04:40:40;;;;;;;47.78;17.55;;;6.90;99.90;;;;;;4983782;28;20065;-71
2021/11/18 04:43:07;;;;;;;51.38;18.30;;;6.90;99.90;;;;;;5003528;28;20090;-71
2021/11/18 04:45:35;;;;;;;44.03;17.83;;;6.90;99.90;;;;;;5003409;28;20124;-71
2021/11/18 04:48:03;;;;;;;60.22;17.98;;;6.90;99.90;;;;;;5020998;28;20412;-71
2021/11/18 04:50:33;;;;;;;40.00;16.73;;;6.90;99.90;;;;;;5004119;28;20059;-70
2021/11/18 04:53:02;;;;;;;43.55;17.60;;;6.90;99.90;;;;;;5020239;28;20065;-70
2021/11/18 04:55:30;;;;;;;50.10;16.65;;;6.90;99.90;;;;;;5004093;28;20132;-70
2021/11/18 04:57:59;;;;;;;49.50;15.85;;;6.90;99.90;;;;;;4988029;28;20061;-70
2021/11/18 05:00:29;;;;;;;40.83;17.85;;;6.90;99.90;;;;;;4987861;28;20091;-70
2021/11/18 05:02:57;;;;;;;43.63;16.30;;;6.90;99.90;;;;;;4988311;28;20049;-70
2021/11/18 05:05:26;;;;;;;50.40;17.35;;;6.90;99.90;;;;;;4986641;28;20073;-70
2021/11/18 05:07:54;;;;;;;52.42;18.58;;;6.90;99.90;;;;;;5003806;28;20607;-70
2021/11/18 05:10:22;;;;;;;53.35;15.00;;;7.00;99.90;;;;;;4987051;28;20368;-71
2021/11/18 05:12:50;;;;;;;47.38;17.02;;;7.00;99.90;;;;;;5004182;28;20526;-71
2021/11/18 05:15:23;;;;;;;51.40;16.15;;;7.10;99.90;;;;;;4984613;28;20060;-70
2021/11/18 05:17:51;;;;;;;50.28;16.95;;;7.10;99.90;;;;;;5003913;28;20053;-70
2021/11/18 05:20:20;;;;;;;46.92;17.00;;;7.10;99.90;;;;;;5004176;28;20060;-70
2021/11/18 05:22:48;;;;;;;46.33;17.33;;;7.10;99.90;;;;;;5004061;28;20072;-70
2021/11/18 05:25:18;;;;;;;47.15;16.85;;;7.10;99.90;;;;;;4987876;28;20080;-70
2021/11/18 05:27:45;;;;;;;45.28;15.18;;;7.10;99.90;;;;;;5005053;28;20522;-70
2021/11/18 05:30:15;;;;;;;50.40;16.60;;;7.00;99.90;;;;;;4990862;28;20077;-70
2021/11/18 05:32:43;;;;;;;39.40;13.75;;;7.10;99.90;;;;;;5010932;28;20053;-70
2021/11/18 05:35:24;;;;;;;40.67;14.48;;;7.10;99.90;;;;;;5007672;28;20115;-70
2021/11/18 05:37:51;;;;;;;39.95;15.57;;;7.10;99.90;;;;;;5008165;28;20271;-70
2021/11/18 05:40:20;;;;;;;40.50;15.50;;;7.10;99.90;;;;;;5005312;28;20073;-70
2021/11/18 05:42:49;;;;;;;36.15;15.15;;;7.10;99.90;;;;;;5007258;28;20049;-70
2021/11/18 05:45:20;;;;;;;40.47;15.00;;;7.10;99.90;;;;;;5007036;28;20160;-70
2021/11/18 05:48:09;;;;;;;43.67;16.23;;;7.10;99.90;;;;;;5007181;28;20149;-70
2021/11/18 05:50:39;;;;;;;43.83;15.23;;;7.10;99.90;;;;;;4990729;28;20125;-70
2021/11/18 05:53:06;;;;;;;41.95;15.40;;;7.10;99.90;;;;;;5007655;28;20071;-71
2021/11/18 05:55:36;;;;;;;37.65;13.68;;;7.10;99.90;;;;;;4991953;28;20045;-70
2021/11/18 05:58:03;;;;;;;51.00;16.38;;;7.10;99.90;;;;;;5020531;28;20083;-70
2021/11/18 06:00:31;;;;;;;37.72;15.07;;;7.10;99.90;;;;;;5021864;28;20068;-72
2021/11/18 06:02:59;;;;;;;38.45;15.10;;;7.10;99.90;;;;;;5008543;28;20049;-70
2021/11/18 06:05:28;;;;;;;48.53;16.40;;;7.10;99.90;;;;;;4973471;28;20053;-70
2021/11/18 06:07:55;;;;;;;48.72;15.30;;;7.10;99.90;;;;;;5025567;28;20054;-71
2021/11/18 06:10:26;;;;;;;51.28;15.93;;;7.10;99.90;;;;;;5008099;28;20140;-71
2021/11/18 06:12:54;;;;;;;41.05;14.32;;;7.20;99.90;;;;;;4991635;28;20101;-71
2021/11/18 06:15:29;;;;;;;41.67;15.32;;;7.10;99.90;;;;;;5006416;28;20054;-71
2021/11/18 06:17:57;;;;;;;40.15;15.70;;;7.10;99.90;;;;;;5005356;28;20499;-71
2021/11/18 06:20:26;;;;;;;37.67;14.43;;;7.20;99.90;;;;;;5006997;28;20579;-71
2021/11/18 06:22:53;;;;;;;37.78;13.38;;;7.10;99.90;;;;;;4991149;28;20045;-70
2021/11/18 06:25:25;;;;;;;37.15;14.65;;;7.10;99.90;;;;;;5007478;28;20049;-71
2021/11/18 06:27:52;;;;;;;34.65;15.60;;;7.10;99.90;;;;;;4990985;28;20444;-70
2021/11/18 06:30:29;;;;;;;40.30;15.82;;;7.10;99.90;;;;;;5006755;28;20175;-70
2021/11/18 06:32:58;;;;;;;43.70;15.15;;;7.10;99.90;;;;;;4963362;28;20468;-70
2021/11/18 06:35:25;;;;;;;43.22;15.07;;;7.10;99.90;;;;;;4988549;28;24546;-71
2021/11/18 06:37:53;;;;;;;45.88;16.17;;;7.20;99.90;;;;;;4989168;28;20084;-70
2021/11/18 06:40:24;;;;;;;38.83;15.30;;;7.20;99.90;;;;;;4988474;28;20852;-70
2021/11/18 06:42:51;;;;;;;33.42;13.27;;;7.20;99.90;;;;;;4990909;28;20140;-71
2021/11/18 06:45:28;;;;;;;51.17;15.43;;;7.20;99.90;;;;;;5007672;28;20057;-71
2021/11/18 06:48:08;;;;;;;46.08;15.15;;;7.20;99.90;;;;;;4976149;28;20671;-71
2021/11/18 06:50:36;;;;;;;32.20;14.07;;;7.20;99.90;;;;;;4989013;28;20142;-71
2021/11/18 06:53:08;;;;;;;48.50;15.95;;;7.20;99.90;;;;;;4990246;28;20454;-71
2021/11/18 06:55:35;;;;;;;38.75;14.48;;;7.30;99.90;;;;;;4990974;28;20080;-71
2021/11/18 06:58:03;;;;;;;42.72;14.95;;;7.20;99.90;;;;;;5002317;28;20171;-70
2021/11/18 07:00:30;;;;;;;39.85;15.95;;;7.20;99.90;;;;;;5009720;28;20380;-71
2021/11/18 07:02:57;;;;;;;43.95;14.93;;;7.20;99.90;;;;;;5004374;28;20049;-71
2021/11/18 07:05:24;;;;;;;51.03;16.60;;;7.20;99.90;;;;;;4989512;28;20081;-71
2021/11/18 07:07:53;;;;;;;41.85;15.18;;;7.20;99.90;;;;;;4990242;28;20053;-71
2021/11/18 07:10:24;;;;;;;47.60;15.88;;;7.20;99.90;;;;;;4989938;28;20095;-71
2021/11/18 07:13:10;;;;;;;45.88;15.93;;;7.20;99.90;;;;;;5006646;28;20049;-71
2021/11/18 07:15:36;;;;;;;52.60;16.48;;;7.20;99.90;;;;;;4987582;28;20057;-70
2021/11/18 07:18:08;;;;;;;43.95;15.90;;;7.20;99.90;;;;;;4987691;28;20056;-70
2021/11/18 07:20:36;;;;;;;38.42;16.25;;;7.20;99.90;;;;;;5005235;28;20241;-71
2021/11/18 07:23:06;;;;;;;42.72;16.20;;;7.30;99.90;;;;;;5007107;28;20520;-70
2021/11/18 07:25:39;;;;;;;46.00;15.95;;;7.30;99.90;;;;;;4988736;28;20064;-71
2021/11/18 07:28:09;;;;;;;52.50;17.52;;;7.40;99.90;;;;;;5005439;28;20064;-70
2021/11/18 07:30:37;;;;;;;47.65;14.93;;;7.30;99.90;;;;;;5023205;28;20115;-71
2021/11/18 07:33:04;;;;;;;46.00;14.82;;;7.30;99.90;;;;;;5005324;28;20689;-70
2021/11/18 07:35:32;;;;;;;48.70;15.60;;;7.30;99.90;;;;;;5004786;28;20816;-72
2021/11/18 07:38:00;;;;;;;38.42;14.43;;;7.30;99.90;;;;;;5006418;28;20049;-71
2021/11/18 07:40:39;;;;;;;41.47;15.77;;;7.30;99.90;;;;;;5002892;28;20061;-71
2021/11/18 07:43:19;;;;;;;37.60;14.10;;;7.40;99.90;;;;;;4989069;28;20630;-71
2021/11/18 07:46:00;;;;;;;40.28;12.00;;;7.40;99.90;;;;;;5023547;28;20146;-71
2021/11/18 07:48:34;;;;;;;42.92;12.98;;;7.40;99.90;;;;;;4988728;28;20131;-70
2021/11/18 07:51:05;;;;;;;52.45;13.98;;;7.40;99.90;;;;;;5005037;28;20053;-71
2021/11/18 07:53:33;;;;;;;42.28;13.05;;;7.40;99.90;;;;;;4989740;28;20476;-71
2021/11/18 07:56:02;;;;;;;39.40;14.10;;;7.40;99.90;;;;;;5003690;28;20053;-71
2021/11/18 07:58:33;;;;;;;42.85;12.80;;;7.40;99.90;;;;;;4989541;28;20695;-71
2021/11/18 08:01:00;;;;;;;37.42;12.35;;;7.40;99.90;;;;;;5004124;28;20144;-70
2021/11/18 08:03:31;;;;;;;43.65;14.30;;;7.40;99.90;;;;;;4988711;28;20403;-71
2021/11/18 08:06:28;;;;;;;40.20;13.23;;;7.50;99.90;;;;;;5004359;28;20117;-71
2021/11/18 08:08:59;;;;;;;44.30;12.57;;;7.50;99.90;;;;;;4990667;28;20061;-71
2021/11/18 08:11:40;;;;;;;40.63;13.35;;;7.50;99.90;;;;;;5005693;28;20055;-71
2021/11/18 08:14:08;;;;;;;28.85;11.15;;;7.60;99.90;;;;;;4988615;28;20107;-71
2021/11/18 08:16:36;;;;;;;36.33;12.02;;;7.50;99.90;;;;;;4988460;28;20053;-71
2021/11/18 08:19:05;;;;;;;36.47;11.55;;;7.60;99.90;;;;;;4987774;28;20049;-71
2021/11/18 08:21:35;;;;;;;56.15;13.70;;;7.50;99.90;;;;;;4977701;28;20069;-71
2021/11/18 08:24:04;;;;;;;36.20;10.70;;;7.60;99.90;;;;;;5022020;28;20109;-71
2021/11/18 08:26:32;;;;;;;50.95;15.35;;;7.60;99.90;;;;;;5003041;28;20045;-71
2021/11/18 08:29:08;;;;;;;37.58;12.18;;;7.60;99.90;;;;;;5005255;28;20045;-71
2021/11/18 08:31:36;;;;;;;40.63;12.25;;;7.70;99.90;;;;;;4986812;28;20610;-72
2021/11/18 08:34:22;;;;;;;29.35;9.90;;;7.60;99.90;;;;;;4989026;28;20746;-71
2021/11/18 08:36:54;;;;;;;46.75;12.52;;;7.70;99.90;;;;;;4996471;28;20491;-72
2021/11/18 08:39:25;;;;;;;36.78;11.40;;;7.70;99.90;;;;;;5004711;28;20045;-71
2021/11/18 08:41:58;;;;;;;43.20;11.80;;;7.80;99.90;;;;;;4984446;28;20054;-71
2021/11/18 08:44:29;;;;;;;;;;;7.80;99.90;;;;;;4988747;28;20059;-71
2021/11/18 08:46:57;;;;;;;38.92;11.00;;;7.80;99.90;;;;;;4988534;28;19921;-71
2021/11/18 08:49:27;;;;;;;31.63;10.45;;;7.80;99.90;;;;;;4986716;28;20562;-70
2021/11/18 08:51:56;;;;;;;37.78;10.32;;;7.80;99.90;;;;;;5021168;28;20046;-71
2021/11/18 08:54:28;;;;;;;32.70;9.95;;;7.80;99.90;;;;;;4988834;28;20054;-71
2021/11/18 08:56:57;;;;;;;44.67;11.90;;;7.80;99.90;;;;;;4991363;28;20540;-71
2021/11/18 08:59:26;;;;;;;30.27;10.25;;;7.80;99.90;;;;;;5025072;28;20049;-71
2021/11/18 09:02:13;;;;;;;36.95;10.57;;;7.90;99.90;;;;;;4988776;28;20100;-71
2021/11/18 09:04:41;;;;;;;34.72;10.43;;;8.00;99.90;;;;;;5004517;28;20050;-70
2021/11/18 09:07:08;;;;;;;35.22;11.32;;;8.00;99.90;;;;;;5008181;28;20148;-71
2021/11/18 09:09:36;;;;;;;33.25;11.32;;;8.00;99.90;;;;;;5006383;28;20068;-71
2021/11/18 09:12:06;;;;;;;35.92;11.57;;;8.00;99.90;;;;;;5008451;28;20045;-72
2021/11/18 09:14:34;;;;;;;38.20;12.07;;;8.00;99.90;;;;;;4993481;28;20652;-71
2021/11/18 09:17:01;;;;;;;37.47;12.73;;;8.00;99.90;;;;;;5008095;28;20155;-71
2021/11/18 09:19:34;;;;;;;35.15;13.10;;;8.10;99.90;;;;;;5019290;28;20045;-71
2021/11/18 09:22:05;;;;;;;47.92;13.02;;;8.10;99.90;;;;;;5025498;28;20701;-71
2021/11/18 09:24:37;;;;;;;35.45;11.23;;;8.20;99.90;;;;;;4991898;28;20057;-71
2021/11/18 09:27:22;;;;;;;34.25;12.68;;;8.10;99.90;;;;;;5007169;28;20084;-72
2021/11/18 09:29:50;;;;;;;41.35;13.15;;;8.10;99.90;;;;;;4991549;28;20060;-71
2021/11/18 09:32:28;;;;;;;36.85;13.30;;;8.20;99.90;;;;;;5006509;28;20069;-71
2021/11/18 09:35:10;;;;;;;44.42;13.85;;;8.20;99.90;;;;;;4991740;28;20483;-72
2021/11/18 09:37:38;;;;;;;31.45;12.45;;;8.20;99.90;;;;;;4990630;28;20056;-72
2021/11/18 09:40:17;;;;;;;38.03;11.23;;;8.20;99.90;;;;;;5025058;28;20705;-72
2021/11/18 09:43:10;;;;;;;37.30;12.77;;;8.30;99.90;;;;;;4990966;28;20171;-71
2021/11/18 09:45:45;;;;;;;42.95;14.02;;;8.20;99.90;;;;;;5003408;28;20144;-71
2021/11/18 09:48:33;;;;;;;46.15;14.77;;;8.20;99.90;;;;;;5024983;28;20136;-75
2021/11/18 09:51:26;;;;;;;43.45;13.30;;;8.30;99.90;;;;;;5003365;28;20484;-71
2021/11/18 09:54:02;;;;;;;34.75;11.55;;;8.30;99.90;;;;;;5008066;28;20061;-72
2021/11/18 09:56:40;;;;;;;34.88;13.50;;;8.30;99.90;;;;;;4991033;28;20049;-71
2021/11/18 09:59:37;;;;;;;43.65;14.10;;;8.30;99.90;;;;;;5006881;28;20050;-72
2021/11/18 10:02:27;;;;;;;39.35;13.38;;;8.40;99.90;;;;;;5007523;28;20076;-72
2021/11/18 10:05:26;;;;;;;50.20;14.70;;;8.40;99.90;;;;;;5003905;28;20052;-71
2021/11/18 10:07:57;;;;;;;28.23;12.00;;;8.40;99.90;;;;;;4979222;28;20053;-71
2021/11/18 10:10:38;;;;;;;42.80;12.23;;;8.40;99.90;;;;;;5007529;28;20054;-71
2021/11/18 10:13:20;;;;;;;39.17;12.77;;;8.40;99.90;;;;;;5002300;28;20079;-72
2021/11/18 10:16:02;;;;;;;46.90;15.43;;;8.40;99.90;;;;;;5013065;28;20091;-73
2021/11/18 10:18:41;;;;;;;44.90;13.45;;;8.50;99.90;;;;;;4993363;28;20520;-72
2021/11/18 10:21:19;;;;;;;41.97;14.65;;;8.60;99.90;;;;;;5045872;28;20060;-71
2021/11/18 10:23:49;;;;;;;40.60;12.68;;;8.60;99.90;;;;;;4990163;28;20574;-72
2021/11/18 10:26:23;;;;;;;46.20;14.57;;;8.50;99.90;;;;;;5006243;28;20041;-71
2021/11/18 10:29:28;;;;;;;35.65;12.65;;;8.50;99.90;;;;;;5024272;28;20045;-72
2021/11/18 10:32:23;;;;;;;43.53;13.65;;;8.60;99.90;;;;;;4989822;28;20070;-71
2021/11/18 10:35:26;;;;;;;42.78;14.20;;;8.60;99.90;;;;;;5025351;28;20053;-71
2021/11/18 10:38:12;;;;;;;53.17;15.68;;;8.50;99.90;;;;;;4989715;28;20121;-71
2021/11/18 10:40:51;;;;;;;51.65;14.75;;;8.50;99.90;;;;;;5002987;28;20056;-71
2021/11/18 10:43:19;;;;;;;48.45;16.73;;;8.60;99.90;;;;;;5018243;28;20122;-72
2021/11/18 10:45:58;;;;;;;54.75;16.65;;;8.60;99.90;;;;;;5007048;28;20049;-72
2021/11/18 10:48:30;;;;;;;53.20;14.48;;;8.60;99.90;;;;;;4987018;28;20161;-72
2021/11/18 10:51:18;;;;;;;48.53;15.90;;;8.60;99.90;;;;;;5004575;28;20546;-72
2021/11/18 10:53:55;;;;;;;39.15;15.13;;;8.60;99.90;;;;;;5039884;28;20061;-71
2021/11/18 10:56:33;;;;;;;50.15;14.77;;;8.60;99.90;;;;;;5006632;28;20119;-71
2021/11/18 10:59:11;;;;;;;50.60;15.57;;;8.60;99.90;;;;;;5017639;28;20526;-72
2021/11/18 11:01:44;;;;;;;45.22;14.98;;;8.60;99.90;;;;;;4991238;28;20072;-72
2021/11/18 11:04:33;;;;;;;37.97;14.88;;;8.60;99.90;;;;;;5024179;28;20423;-72
2021/11/18 11:07:00;;;;;;;42.40;15.27;;;8.60;99.90;;;;;;5005839;28;20054;-72
2021/11/18 11:09:37;;;;;;;51.28;13.82;;;8.60;99.90;;;;;;5006606;28;20045;-73
2021/11/18 11:12:07;;;;;;;45.30;14.90;;;8.60;99.90;;;;;;5024327;28;20049;-72
2021/11/18 11:14:58;;;;;;;47.33;15.10;;;8.60;99.90;;;;;;5023848;28;20045;-72
2021/11/18 11:17:31;;;;;;;53.10;14.60;;;8.60;99.90;;;;;;5003466;28;20056;-72
2021/11/18 11:20:15;;;;;;;42.50;14.35;;;8.70;99.90;;;;;;5021231;28;20057;-71
2021/11/18 11:23:00;;;;;;;46.25;15.50;;;8.80;99.90;;;;;;5022001;28;20055;-72
2021/11/18 11:25:48;;;;;;;44.25;16.27;;;8.70;99.90;;;;;;5023071;28;20073;-72
2021/11/18 11:28:33;;;;;;;42.80;14.18;;;8.80;99.90;;;;;;5005702;28;20065;-72
2021/11/18 11:31:15;;;;;;;67.25;16.77;;;8.90;99.90;;;;;;5004867;28;20049;-72
2021/11/18 11:34:12;;;;;;;49.40;14.25;;;9.00;99.90;;;;;;5024262;28;20496;-72
2021/11/18 11:37:22;;;;;;;38.42;15.80;;;9.00;99.90;;;;;;5016975;28;20518;-72
2021/11/18 11:39:52;;;;;;;48.72;13.52;;;9.00;99.90;;;;;;5010245;28;20056;-72
2021/11/18 11:42:56;;;;;;;35.40;11.25;;;9.10;99.90;;;;;;5022307;28;20054;-72
2021/11/18 11:46:08;;;;;;;30.60;11.43;;;9.10;99.90;;;;;;5005230;28;20140;-72
2021/11/18 11:48:40;;;;;;;28.73;10.85;;;9.10;99.90;;;;;;4922489;29;20051;-73
2021/11/18 11:51:18;;;;;;;38.58;12.13;;;9.10;99.90;;;;;;4923286;28;20671;-71
2021/11/18 11:54:09;;;;;;;43.38;13.88;;;9.10;99.90;;;;;;4969595;28;20057;-72
2021/11/18 11:56:43;;;;;;;39.50;11.25;;;9.10;99.90;;;;;;5004192;28;20060;-72
2021/11/18 11:59:27;;;;;;;33.22;12.25;;;9.20;99.90;;;;;;5018968;28;20048;-72
2021/11/18 12:02:07;;;;;;;44.17;13.57;;;9.20;99.90;;;;;;5005738;28;20061;-73
2021/11/18 12:04:37;;;;;;;31.95;11.77;;;9.30;99.90;;;;;;5005915;28;20114;-72
2021/11/18 12:07:26;;;;;;;25.65;10.73;;;9.40;99.90;;;;;;4991769;28;20065;-72
2021/11/18 12:10:28;;;;;;;33.55;12.88;;;9.40;99.90;;;;;;5003440;28;20068;-72
2021/11/18 12:13:15;;;;;;;25.60;10.05;;;9.30;99.90;;;;;;4967668;28;20107;-72
2021/11/18 12:15:47;;;;;;;27.13;11.13;;;9.40;99.90;;;;;;5033091;28;20053;-72
2021/11/18 12:18:28;;;;;;;35.97;12.07;;;9.40;99.90;;;;;;5003009;28;20160;-72
2021/11/18 12:20:59;;;;;;;33.78;11.55;;;9.50;99.90;;;;;;4989120;28;20052;-72
2021/11/18 12:23:54;;;;;;;38.70;11.40;;;9.40;99.90;;;;;;5023483;28;20057;-72
2021/11/18 12:26:21;;;;;;;34.55;12.48;;;9.30;99.90;;;;;;5022745;28;20041;-73
2021/11/18 12:29:16;;;;;;;35.88;11.73;;;9.30;99.90;;;;;;5002642;28;20037;-72
2021/11/18 12:32:03;;;;;;;24.08;11.07;;;9.30;99.90;;;;;;4989914;28;20076;-72
2021/11/18 12:34:53;;;;;;;29.15;12.23;;;9.40;99.90;;;;;;5023145;28;20064;-75
2021/11/18 12:37:23;;;;;;;39.63;13.55;;;9.50;99.90;;;;;;4989197;28;20051;-74
2021/11/18 12:40:15;;;;;;;33.85;12.48;;;9.60;99.90;;;;;;4991940;28;20049;-74
2021/11/18 12:42:51;;;;;;;43.53;14.02;;;9.80;99.90;;;;;;5027371;28;20053;-74
2021/11/18 12:45:51;;;;;;;34.75;15.48;;;9.80;99.90;;;;;;5007148;28;20076;-74
2021/11/18 12:48:53;;;;;;;36.17;11.77;;;9.80;99.90;;;;;;4991969;28;20058;-74
2021/11/18 12:51:48;;;;;;;28.33;10.75;;;9.60;99.90;;;;;;5029349;28;20121;-74
2021/11/18 12:54:24;;;;;;;40.80;11.77;;;9.50;99.90;;;;;;5017169;28;20528;-74
2021/11/18 12:57:11;;;;;;;30.15;11.65;;;9.50;99.90;;;;;;4999909;28;20304;-74
2021/11/18 12:59:39;;;;;;;36.67;11.25;;;9.50;99.90;;;;;;5037903;28;20048;-74
2021/11/18 13:02:09;;;;;;;34.17;11.20;;;9.50;99.90;;;;;;5036853;28;20052;-74
2021/11/18 13:04:49;;;;;;;37.90;11.02;;;9.40;99.90;;;;;;5015916;28;20054;-74
2021/11/18 13:07:39;;;;;;;28.85;11.52;;;9.40;99.90;;;;;;5022114;28;20482;-74
2021/11/18 13:10:18;;;;;;;36.97;12.60;;;9.40;99.90;;;;;;4995473;28;20454;-74